METAR Formatted Surface Weather Observation
Issued by NWS

Home | Current Version | Previous Version | Text Only | Print | Product List | Glossary On
Versions: 1 2 3 4 5 6 7 8 9 10
000
SAUS43 KMQT 172300 COR
MTRP53
METAR KP53 172256Z AUTO 01003KT 01/M01 A2990 RMK AO1 SLP135
T00111006



USA.gov is the U.S. government's official web portal to all federal, state and local government web resources and services.